Time;durP1;ratioP1;P1;durP2;ratioP2;P2;SDS_P1;SDS_P2;PMS_P1;PMS_P2;Temp;Humidity;BMP_temperature;BMP_pressure;BME280_temperature;BME280_humidity;BME280_pressure;Samples;Min_cycle;Max_cycle;Signal;HPM_P1;HPM_P2
2022/05/31 00:00:32;;;;;;;12.15;7.07;;;;;;;9.87;70.66;99697.84;5041467;28;20029;-87
2022/05/31 00:02:59;;;;;;;15.20;6.88;;;;;;;9.84;70.02;99706.53;5039570;28;20461;-86
2022/05/31 00:05:25;;;;;;;9.82;5.95;;;;;;;9.80;70.65;99700.78;5041527;28;20033;-87
2022/05/31 00:07:51;;;;;;;13.90;5.43;;;;;;;9.70;70.80;99698.00;5041190;28;20035;-86
2022/05/31 00:10:17;;;;;;;10.23;5.55;;;;;;;9.81;70.10;99693.44;5041173;28;20040;-86
2022/05/31 00:12:43;;;;;;;11.18;6.35;;;;;;;9.61;70.47;99702.28;5040038;28;20028;-87
2022/05/31 00:15:10;;;;;;;8.50;4.53;;;;;;;9.76;70.25;99698.84;5041786;28;20039;-87
2022/05/31 00:17:36;;;;;;;12.18;4.97;;;;;;;9.87;70.39;99689.66;5040672;28;20053;-86
2022/05/31 00:20:19;;;;;;;9.88;5.93;;;;;;;10.11;69.29;99692.00;5041476;28;20033;-86
2022/05/31 00:22:45;;;;;;;10.57;5.50;;;;;;;10.21;69.11;99687.72;5041423;28;20032;-87
2022/05/31 00:25:12;;;;;;;10.13;5.00;;;;;;;10.27;68.49;99679.28;5040767;28;20029;-86
2022/05/31 00:27:37;;;;;;;11.57;4.97;;;;;;;10.42;67.92;99677.72;5040192;28;20025;-86
2022/05/31 00:30:04;;;;;;;13.18;5.95;;;;;;;10.26;67.87;99682.28;5039503;28;20240;-86
2022/05/31 00:32:33;;;;;;;15.48;5.80;;;;;;;10.45;67.11;99676.38;5040888;28;20033;-86
2022/05/31 00:35:07;;;;;;;12.05;4.90;;;;;;;10.51;66.53;99678.06;5039439;28;20090;-86
2022/05/31 00:37:34;;;;;;;7.63;5.07;;;;;;;10.44;66.90;99678.28;5040998;28;20032;-86
2022/05/31 00:39:59;;;;;;;9.70;4.82;;;;;;;10.55;66.47;99687.34;5041303;28;20029;-86
2022/05/31 00:42:25;;;;;;;9.98;5.07;;;;;;;10.56;67.33;99677.25;5039677;28;20037;-86
2022/05/31 00:44:51;;;;;;;9.23;4.40;;;;;;;10.47;68.24;99679.66;5041017;28;20025;-86
2022/05/31 00:47:27;;;;;;;11.82;5.47;;;;;;;10.25;68.92;99684.16;5039809;28;20036;-86
2022/05/31 00:49:59;;;;;;;11.98;5.70;;;;;;;10.21;68.00;99682.25;5054053;28;20029;-87
2022/05/31 00:52:30;;;;;;;9.65;5.05;;;;;;;10.22;68.15;99689.34;5057997;28;20044;-86
2022/05/31 00:55:11;;;;;;;11.35;4.95;;;;;;;10.16;68.54;99691.22;5039719;28;20459;-86
2022/05/31 00:57:40;;;;;;;11.90;4.80;;;;;;;10.37;67.97;99680.44;5039573;28;20029;-86
2022/05/31 01:00:10;;;;;;;7.70;4.32;;;;;;;10.46;66.56;99680.72;5039963;28;20029;-86
2022/05/31 01:02:37;;;;;;;10.55;5.05;;;;;;;10.39;66.53;99676.31;5039694;28;20091;-86
2022/05/31 01:05:06;;;;;;;9.45;5.50;;;;;;;10.31;66.59;99685.03;5040700;28;20029;-86
2022/05/31 01:07:32;;;;;;;10.02;6.00;;;;;;;10.36;65.91;99673.31;5039453;28;20024;-85
2022/05/31 01:09:57;;;;;;;11.55;5.93;;;;;;;10.25;66.76;99677.91;5040805;28;20041;-86
2022/05/31 01:12:24;;;;;;;10.48;4.25;;;;;;;10.18;66.28;99671.88;5040378;28;20434;-86
2022/05/31 01:14:49;;;;;;;9.18;4.75;;;;;;;10.13;66.35;99676.22;5041892;28;20512;-85
2022/05/31 01:17:20;;;;;;;13.15;5.63;;;;;;;10.05;67.10;99673.97;5039564;28;20019;-87
2022/05/31 01:19:59;;;;;;;7.53;4.43;;;;;;;10.14;67.08;99674.31;5040915;28;20497;-86
2022/05/31 01:22:36;;;;;;;13.00;5.50;;;;;;;10.15;67.95;99678.66;5040046;28;20032;-87
2022/05/31 01:25:28;;;;;;;10.32;5.40;;;;;;;10.15;67.55;99684.94;5040753;28;20036;-86
2022/05/31 01:28:10;;;;;;;15.05;6.32;;;;;;;9.95;69.38;99685.63;5039792;28;20033;-85
2022/05/31 01:30:42;;;;;;;9.15;5.03;;;;;;;9.78;70.65;99677.63;5039489;28;20033;-85
2022/05/31 01:33:25;;;;;;;11.63;5.00;;;;;;;9.74;70.84;99671.06;5039862;28;20437;-87
2022/05/31 01:35:50;;;;;;;12.15;5.30;;;;;;;9.73;70.52;99666.69;5040237;28;20033;-85
2022/05/31 01:38:31;;;;;;;10.48;5.05;;;;;;;9.74;69.71;99662.91;5040161;28;20021;-86
2022/05/31 01:41:21;;;;;;;9.02;4.97;;;;;;;9.56;71.18;99673.09;5039645;28;20039;-86
2022/05/31 01:43:51;;;;;;;8.90;3.90;;;;;;;9.83;70.07;99658.59;5039691;28;20063;-86
2022/05/31 01:46:29;;;;;;;8.88;5.28;;;;;;;9.82;69.40;99665.13;5040090;28;20029;-85
2022/05/31 01:51:42;;;;;;;12.77;5.25;;;;;;;9.53;70.61;99658.13;5035898;28;20112;-87
2022/05/31 01:54:10;;;;;;;9.30;5.63;;;;;;;9.61;70.62;99658.72;5040863;28;20036;-85
2022/05/31 01:56:36;;;;;;;14.27;5.10;;;;;;;9.69;69.84;99658.22;5043671;28;20413;-86
2022/05/31 01:59:03;;;;;;;11.48;5.05;;;;;;;9.76;70.34;99656.09;5044502;28;20036;-87
2022/05/31 02:01:30;;;;;;;12.15;5.18;;;;;;;9.79;70.29;99652.88;5044260;28;20086;-86
2022/05/31 02:03:56;;;;;;;10.32;4.72;;;;;;;9.63;70.79;99657.38;5043928;28;20037;-86
2022/05/31 02:06:22;;;;;;;13.88;4.25;;;;;;;9.79;70.36;99649.31;5044053;28;20432;-86
2022/05/31 02:08:48;;;;;;;10.60;5.45;;;;;;;10.07;69.09;99650.03;5043438;28;20436;-86
2022/05/31 02:11:13;;;;;;;18.63;6.00;;;;;;;10.13;68.81;99646.25;5044193;28;20025;-86
2022/05/31 02:13:38;;;;;;;7.00;3.83;;;;;;;9.92;70.70;99643.44;5043471;28;20036;-86
2022/05/31 02:16:04;;;;;;;18.00;7.20;;;;;;;10.05;69.97;99641.28;5041590;28;20037;-86
2022/05/31 02:19:15;;;;;;;8.07;3.95;;;;;;;10.38;67.36;99642.00;5043171;28;20259;-86
2022/05/31 02:21:15;;;;;;;9.77;5.18;;;;;;;10.47;67.80;99645.03;5043047;28;20037;-86
2022/05/31 02:23:40;;;;;;;12.68;6.03;;;;;;;10.62;67.43;99640.72;5043435;28;20033;-86
2022/05/31 02:26:05;;;;;;;12.23;6.28;;;;;;;10.49;68.13;99644.81;5043272;28;20021;-85
2022/05/31 02:28:31;;;;;;;11.60;6.87;;;;;;;10.32;69.15;99644.97;5044141;28;20253;-86
2022/05/31 02:30:56;;;;;;;12.57;6.47;;;;;;;10.22;69.51;99648.47;5042801;28;20297;-86
2022/05/31 02:33:21;;;;;;;12.43;7.83;;;;;;;10.18;69.94;99647.34;5042591;28;21015;-85
2022/05/31 02:35:47;;;;;;;16.75;8.20;;;;;;;10.32;69.64;99645.78;5042810;28;20262;-85
2022/05/31 02:38:12;;;;;;;13.40;6.95;;;;;;;10.23;70.39;99641.94;5043476;28;20037;-87
2022/05/31 02:40:37;;;;;;;11.40;6.68;;;;;;;10.33;70.40;99638.44;5043480;28;20383;-85
2022/05/31 02:43:03;;;;;;;10.63;6.28;;;;;;;10.17;70.17;99635.63;5042295;28;20044;-86
2022/05/31 02:45:28;;;;;;;11.98;6.28;;;;;;;10.30;70.16;99631.59;5044083;28;20028;-86
2022/05/31 02:47:53;;;;;;;9.97;5.17;;;;;;;10.29;70.23;99627.25;5042624;28;20032;-86
2022/05/31 02:50:19;;;;;;;12.50;5.50;;;;;;;10.26;70.22;99625.06;5059909;28;20265;-86
2022/05/31 02:52:44;;;;;;;11.82;7.30;;;;;;;10.23;70.45;99620.16;5058360;28;20032;-86
2022/05/31 02:55:10;;;;;;;14.87;5.50;;;;;;;10.21;70.88;99623.13;5042762;28;20036;-87
2022/05/31 02:57:35;;;;;;;14.02;6.32;;;;;;;10.08;71.25;99624.44;5042999;28;20274;-85
2022/05/31 03:00:00;;;;;;;10.00;5.17;;;;;;;10.21;71.00;99625.03;5042947;28;20031;-86
2022/05/31 03:02:26;;;;;;;12.37;6.60;;;;;;;10.07;71.30;99616.53;5041241;28;20284;-86
2022/05/31 03:04:51;;;;;;;10.95;6.20;;;;;;;9.95;72.03;99624.88;5041789;28;20319;-86
2022/05/31 03:07:16;;;;;;;12.10;6.40;;;;;;;9.97;72.11;99622.72;5041234;28;20063;-86
2022/05/31 03:09:41;;;;;;;11.27;6.10;;;;;;;10.02;71.62;99620.03;5042212;28;20044;-87
2022/05/31 03:12:14;;;;;;;11.13;5.63;;;;;;;10.08;71.65;99616.25;5041789;28;20684;-86
2022/05/31 03:14:53;;;;;;;11.07;6.10;;;;;;;10.02;72.20;99620.03;5042443;28;20321;-85
2022/05/31 03:17:39;;;;;;;10.75;5.65;;;;;;;9.91;72.30;99617.25;5042644;28;20017;-86
2022/05/31 03:20:21;;;;;;;11.30;5.32;;;;;;;9.94;72.90;99613.19;5041481;28;20032;-86
2022/05/31 03:22:57;;;;;;;10.77;5.68;;;;;;;10.04;72.29;99618.69;5042085;28;20033;-85
2022/05/31 03:25:25;;;;;;;11.82;5.78;;;;;;;9.86;73.38;99614.53;5042995;28;20029;-86
2022/05/31 03:27:52;;;;;;;11.23;6.22;;;;;;;9.82;73.54;99616.13;5042382;28;20029;-86
2022/05/31 03:30:18;;;;;;;14.10;6.15;;;;;;;9.90;73.22;99614.81;5042155;28;20035;-86
2022/05/31 03:32:45;;;;;;;11.20;6.05;;;;;;;9.91;73.43;99619.97;5042047;28;20380;-86
2022/05/31 03:35:10;;;;;;;11.52;6.25;;;;;;;10.15;71.87;99619.56;5041344;28;20029;-86
2022/05/31 03:37:36;;;;;;;10.00;6.15;;;;;;;10.18;71.67;99612.75;5042572;28;20406;-86
2022/05/31 03:40:02;;;;;;;9.65;6.22;;;;;;;10.14;71.72;99614.38;5042459;28;20388;-85
2022/05/31 03:42:27;;;;;;;24.38;6.85;;;;;;;10.16;72.11;99620.38;5042053;28;20063;-87
2022/05/31 03:44:52;;;;;;;11.60;5.70;;;;;;;10.08;72.20;99613.53;5041567;28;20035;-86
2022/05/31 03:47:18;;;;;;;8.50;5.32;;;;;;;10.15;72.23;99614.09;5041711;28;20726;-86
2022/05/31 03:49:43;;;;;;;10.10;5.40;;;;;;;10.19;71.95;99619.03;5054160;28;20574;-86
2022/05/31 03:55:30;;;;;;;10.20;5.13;;;;;;;10.25;71.59;99617.97;5020910;28;20044;-86
2022/05/31 03:57:55;;;;;;;10.63;5.60;;;;;;;10.21;71.66;99619.59;5021960;28;20041;-86
2022/05/31 04:00:20;;;;;;;9.50;5.60;;;;;;;10.19;71.97;99624.50;5022017;28;20029;-86
2022/05/31 04:02:46;;;;;;;9.13;5.30;;;;;;;10.12;71.65;99620.09;5025201;28;20258;-86
2022/05/31 04:05:12;;;;;;;7.68;4.95;;;;;;;10.38;70.33;99620.19;5041388;28;20021;-85
2022/05/31 04:07:37;;;;;;;11.80;5.03;;;;;;;10.37;70.56;99613.09;5042066;28;20032;-86
2022/05/31 04:10:04;;;;;;;7.43;4.30;;;;;;;10.31;70.93;99616.09;5040656;28;20117;-87
2022/05/31 04:12:33;;;;;;;7.78;3.90;;;;;;;10.37;70.25;99612.28;5041153;28;20388;-86
2022/05/31 04:14:58;;;;;;;7.63;4.80;;;;;;;10.56;68.75;99611.81;5041706;28;20396;-86
2022/05/31 04:17:23;;;;;;;10.30;5.70;;;;;;;10.47;69.38;99614.22;5040518;28;20021;-86
2022/05/31 04:19:49;;;;;;;7.88;4.22;;;;;;;10.47;69.76;99612.34;5042404;28;20671;-85
2022/05/31 04:22:14;;;;;;;15.48;5.10;;;;;;;10.61;69.07;99609.13;5041053;28;20040;-86
2022/05/31 04:24:39;;;;;;;8.65;4.13;;;;;;;10.53;68.66;99610.47;5041460;28;20053;-86
2022/05/31 04:27:04;;;;;;;7.43;3.75;;;;;;;10.54;70.23;99608.53;5041301;28;20090;-86
2022/05/31 04:29:30;;;;;;;10.15;5.65;;;;;;;10.57;69.81;99603.41;5041341;28;20032;-86
2022/05/31 04:31:56;;;;;;;6.40;3.60;;;;;;;10.57;70.16;99606.13;5040900;28;20021;-86
2022/05/31 04:34:21;;;;;;;7.07;4.38;;;;;;;10.39;70.44;99602.75;5041224;28;20127;-86
2022/05/31 04:36:46;;;;;;;7.30;3.93;;;;;;;10.44;70.14;99607.41;5041147;28;20033;-86
2022/05/31 04:39:11;;;;;;;7.53;3.47;;;;;;;10.54;69.98;99608.53;5041515;28;20357;-85
2022/05/31 04:41:37;;;;;;;7.03;3.33;;;;;;;10.61;69.31;99609.94;5042090;28;20482;-86
2022/05/31 04:44:04;;;;;;;7.82;3.28;;;;;;;10.37;69.37;99610.38;5040679;28;20281;-87
2022/05/31 04:46:32;;;;;;;8.25;4.00;;;;;;;10.58;69.05;99605.03;5041979;28;20033;-86
2022/05/31 04:48:59;;;;;;;16.55;4.68;;;;;;;10.71;69.00;99608.31;5040864;28;20671;-87
2022/05/31 04:51:27;;;;;;;7.57;3.92;;;;;;;10.72;69.28;99599.03;5039858;28;20036;-86
2022/05/31 04:53:52;;;;;;;8.27;4.07;;;;;;;10.66;68.64;99600.16;5042162;28;20043;-85
2022/05/31 04:56:20;;;;;;;11.23;5.65;;;;;;;10.62;69.26;99605.28;5044975;28;20029;-87
2022/05/31 04:58:46;;;;;;;7.70;4.07;;;;;;;10.60;69.17;99608.28;5045794;28;20043;-84
2022/05/31 05:01:11;;;;;;;8.20;3.63;;;;;;;10.72;69.24;99602.59;5044961;28;20029;-86
2022/05/31 05:03:37;;;;;;;9.40;4.15;;;;;;;10.71;68.96;99609.16;5061612;28;20034;-87
2022/05/31 05:06:07;;;;;;;18.83;5.10;;;;;;;10.62;70.33;99606.13;5045495;28;20033;-86
2022/05/31 05:11:21;;;;;;;8.80;4.60;;;;;;;10.80;70.36;99595.78;5042005;28;20495;-87
2022/05/31 05:13:46;;;;;;;6.07;3.47;;;;;;;10.93;70.86;99607.25;5045296;28;20467;-86
2022/05/31 05:16:14;;;;;;;10.85;4.40;;;;;;;11.05;69.68;99602.38;5045133;28;20409;-86
2022/05/31 05:18:39;;;;;;;9.77;3.50;;;;;;;11.06;69.82;99601.28;5044942;28;20032;-86
2022/05/31 05:21:08;;;;;;;9.43;4.32;;;;;;;11.15;69.39;99607.00;5046012;28;20037;-86
2022/05/31 05:23:33;;;;;;;8.40;4.53;;;;;;;11.22;69.33;99601.28;5044748;28;20041;-86
2022/05/31 05:25:59;;;;;;;8.13;4.07;;;;;;;11.20;69.48;99598.00;5043722;28;20041;-86
2022/05/31 05:31:40;;;;;;;;;;;;;;;11.25;70.06;99600.72;5048857;28;20570;-84
2022/05/31 05:34:06;;;;;;;11.85;5.45;;;;;;;11.36;68.80;99600.72;5040128;28;19975;-82
2022/05/31 05:36:32;;;;;;;8.32;3.33;;;;;;;11.53;66.88;99601.25;5048780;28;20028;-85
2022/05/31 05:38:57;;;;;;;8.90;3.83;;;;;;;11.37;67.75;99603.16;5048868;28;20052;-86
2022/05/31 05:41:26;;;;;;;11.25;4.38;;;;;;;11.54;67.70;99594.72;5049019;28;20031;-86
2022/05/31 05:43:52;;;;;;;9.25;4.53;;;;;;;11.54;67.55;99604.81;5045731;28;20496;-84
2022/05/31 05:46:20;;;;;;;10.07;5.22;;;;;;;11.58;68.20;99608.63;5047850;28;20159;-85
2022/05/31 05:48:46;;;;;;;9.98;4.85;;;;;;;11.58;68.84;99621.44;5047967;28;20029;-86
2022/05/31 05:51:13;;;;;;;9.18;5.13;;;;;;;11.37;70.55;99624.22;5048589;28;20040;-85
2022/05/31 05:53:38;;;;;;;12.15;4.43;;;;;;;11.23;70.09;99623.94;5048037;28;20029;-86
2022/05/31 05:56:04;;;;;;;10.27;4.60;;;;;;;11.47;69.00;99635.09;5047568;28;20036;-86
2022/05/31 05:58:29;;;;;;;12.32;5.05;;;;;;;11.41;69.76;99637.03;5047976;28;20025;-84
2022/05/31 06:01:42;;;;;;;12.70;4.88;;;;;;;11.55;68.80;99622.84;5048321;28;20488;-84
2022/05/31 06:04:13;;;;;;;10.15;4.97;;;;;;;11.74;68.64;99628.53;5048594;28;20039;-85
2022/05/31 06:06:41;;;;;;;9.07;4.03;;;;;;;11.74;71.79;99619.50;5043386;28;20033;-86
2022/05/31 06:09:15;;;;;;;10.85;6.45;;;;;;;11.71;71.66;99617.34;5042717;28;20028;-85
2022/05/31 06:11:45;;;;;;;11.40;5.32;;;;;;;11.66;73.30;99620.88;5043327;28;20041;-84
2022/05/31 06:14:23;;;;;;;12.35;6.35;;;;;;;11.69;73.45;99617.63;5042927;28;20071;-85
2022/05/31 06:16:57;;;;;;;9.82;5.80;;;;;;;11.40;75.40;99629.13;5029617;28;20087;-83
2022/05/31 06:19:27;;;;;;;14.43;7.13;;;;;;;11.36;75.05;99628.84;5042509;28;20539;-84
2022/05/31 06:21:52;;;;;;;17.85;7.88;;;;;;;11.59;74.51;99631.28;5042942;28;20068;-85
2022/05/31 06:24:19;;;;;;;18.45;6.47;;;;;;;11.32;75.61;99639.50;5042125;28;20613;-85
2022/05/31 06:26:45;;;;;;;11.77;7.28;;;;;;;11.65;75.55;99627.47;5042890;28;20400;-86
2022/05/31 06:29:11;;;;;;;12.32;6.10;;;;;;;11.78;77.47;99626.88;5043086;28;20040;-83
2022/05/31 06:31:37;;;;;;;12.43;6.20;;;;;;;11.90;76.32;99623.03;5044441;28;20033;-83
2022/05/31 06:34:03;;;;;;;14.45;7.65;;;;;;;11.97;74.72;99620.00;5042244;28;20275;-84
2022/05/31 06:36:29;;;;;;;12.95;5.95;;;;;;;12.03;74.80;99608.78;5042384;28;20063;-84
2022/05/31 06:38:54;;;;;;;11.35;5.15;;;;;;;12.18;73.75;99623.53;5042774;28;20083;-84
2022/05/31 06:41:19;;;;;;;9.90;5.53;;;;;;;12.14;74.72;99622.47;5042167;28;20053;-82
2022/05/31 06:43:45;;;;;;;9.43;4.50;;;;;;;12.10;73.24;99619.41;5042059;28;20029;-83
2022/05/31 06:46:11;;;;;;;9.82;4.45;;;;;;;12.30;73.87;99622.38;5042359;28;20261;-82
2022/05/31 06:48:37;;;;;;;7.57;4.72;;;;;;;12.23;74.79;99612.56;5045012;28;20574;-84
2022/05/31 06:51:07;;;;;;;11.60;4.75;;;;;;;12.46;73.67;99623.97;5062650;28;20036;-83
2022/05/31 07:02:04;;;;;;;11.25;4.70;;;;;;;12.48;73.61;99624.50;5022294;28;20099;-84
2022/05/31 07:04:37;;;;;;;10.45;4.97;;;;;;;12.68;74.70;99609.06;5038125;28;20466;-84
2022/05/31 07:07:04;;;;;;;7.57;3.63;;;;;;;12.71;74.24;99610.44;5040819;28;20024;-84
2022/05/31 07:09:29;;;;;;;7.32;3.72;;;;;;;12.86;73.41;99620.44;5041326;28;20202;-84
2022/05/31 07:11:58;;;;;;;8.90;3.85;;;;;;;12.98;71.96;99613.81;5040137;28;20051;-84
2022/05/31 07:14:24;;;;;;;9.07;3.85;;;;;;;13.04;71.92;99612.66;5039820;28;20032;-84
2022/05/31 07:16:50;;;;;;;10.50;4.78;;;;;;;13.08;72.80;99608.25;5039824;28;20392;-83
2022/05/31 07:19:15;;;;;;;8.35;3.72;;;;;;;12.88;73.66;99610.03;5038227;28;20031;-85
2022/05/31 07:21:40;;;;;;;10.85;4.40;;;;;;;12.91;74.86;99605.91;5041886;28;20040;-83
2022/05/31 07:24:06;;;;;;;10.10;4.78;;;;;;;12.83;75.20;99604.59;5040192;28;20029;-83
2022/05/31 07:26:31;;;;;;;9.63;4.97;;;;;;;12.68;76.11;99609.06;5040971;28;20036;-87
2022/05/31 07:28:56;;;;;;;7.30;4.15;;;;;;;12.64;74.50;99609.91;5040447;28;20021;-83
2022/05/31 07:31:22;;;;;;;7.40;3.92;;;;;;;12.70;74.55;99612.34;5039802;28;20024;-85
2022/05/31 07:33:48;;;;;;;10.70;5.35;;;;;;;12.54;75.51;99616.25;5040271;28;20060;-83
2022/05/31 07:36:13;;;;;;;11.88;4.82;;;;;;;12.29;76.30;99609.81;5040112;28;20083;-86
2022/05/31 07:38:41;;;;;;;9.10;4.18;;;;;;;12.48;75.59;99621.75;5039260;28;20502;-86
2022/05/31 07:41:07;;;;;;;8.48;4.20;;;;;;;12.43;76.38;99621.78;5039292;28;20029;-87
2022/05/31 07:43:33;;;;;;;13.07;5.20;;;;;;;12.29;76.00;99620.75;5040809;28;20067;-84
2022/05/31 07:46:10;;;;;;;8.55;4.40;;;;;;;12.32;76.16;99614.72;5037382;28;20482;-84
2022/05/31 07:48:37;;;;;;;9.38;5.40;;;;;;;12.34;76.75;99615.25;5039100;28;20485;-84
2022/05/31 07:51:04;;;;;;;10.98;5.53;;;;;;;12.33;76.26;99622.63;5039536;28;20083;-83
2022/05/31 07:53:29;;;;;;;13.40;6.63;;;;;;;12.40;74.90;99630.53;5038434;28;20082;-83
2022/05/31 07:55:56;;;;;;;15.63;7.32;;;;;;;12.29;74.71;99637.13;5039345;28;20033;-84
2022/05/31 07:58:30;;;;;;;10.27;6.10;;;;;;;12.34;76.12;99637.97;5038434;28;20060;-84
2022/05/31 08:00:56;;;;;;;16.15;6.32;;;;;;;12.31;75.23;99633.03;5037807;28;20044;-83
2022/05/31 08:03:21;;;;;;;12.68;6.95;;;;;;;12.25;75.34;99632.25;5040184;28;20124;-84
2022/05/31 08:05:46;;;;;;;13.47;6.40;;;;;;;12.36;75.86;99632.19;5039452;28;20226;-83
2022/05/31 08:08:12;;;;;;;22.60;7.17;;;;;;;12.39;75.57;99628.91;5038884;28;20302;-84
2022/05/31 08:10:38;;;;;;;12.23;6.75;;;;;;;12.33;76.18;99624.53;5040256;28;20363;-84
2022/05/31 08:13:03;;;;;;;16.38;8.40;;;;;;;12.28;76.62;99621.84;5040782;28;20052;-83
2022/05/31 08:15:28;;;;;;;20.33;7.78;;;;;;;12.35;75.32;99625.09;5040257;28;20021;-84
2022/05/31 08:17:53;;;;;;;17.20;7.90;;;;;;;12.26;75.79;99631.13;5040256;28;20024;-84
2022/05/31 08:20:19;;;;;;;16.73;7.13;;;;;;;12.21;75.27;99638.53;5040399;28;20277;-85
2022/05/31 08:22:45;;;;;;;15.48;6.25;;;;;;;12.26;75.90;99631.13;5039725;28;20270;-84
2022/05/31 08:25:12;;;;;;;18.75;7.13;;;;;;;12.39;74.31;99628.91;5040809;28;20083;-83
2022/05/31 08:27:37;;;;;;;15.55;8.00;;;;;;;12.54;74.38;99627.19;5040613;28;20399;-84
2022/05/31 08:30:04;;;;;;;13.50;7.53;;;;;;;12.72;74.13;99626.56;5039283;28;20209;-84
2022/05/31 08:32:30;;;;;;;14.90;7.10;;;;;;;12.87;72.77;99635.78;5039269;28;20293;-84
2022/05/31 08:34:56;;;;;;;18.08;7.30;;;;;;;12.64;72.56;99627.16;5039351;28;20541;-85
2022/05/31 08:37:21;;;;;;;13.35;7.15;;;;;;;12.81;73.25;99631.44;5039187;28;20024;-81
2022/05/31 08:39:47;;;;;;;13.65;7.88;;;;;;;13.10;71.72;99616.97;5039510;28;20032;-81
2022/05/31 08:42:21;;;;;;;14.77;6.72;;;;;;;13.15;71.13;99624.34;5039195;28;20153;-83
2022/05/31 08:45:04;;;;;;;18.92;7.25;;;;;;;13.07;72.04;99625.78;5039668;28;20041;-82
2022/05/31 08:47:52;;;;;;;12.45;4.63;;;;;;;13.14;69.96;99626.25;5039339;28;20044;-82
2022/05/31 08:53:30;;;;;;;11.13;5.88;;;;;;;13.47;68.73;99619.44;5051558;28;20135;-82
2022/05/31 08:58:55;;;;;;;9.10;4.63;;;;;;;13.31;68.05;99616.81;5039718;28;20565;-82
2022/05/31 09:01:41;;;;;;;10.27;5.35;;;;;;;13.28;68.10;99617.41;5039094;28;20037;-83
2022/05/31 09:04:21;;;;;;;12.93;5.55;;;;;;;13.35;67.78;99617.88;5039628;28;20475;-82
2022/05/31 09:06:58;;;;;;;10.30;5.68;;;;;;;13.27;67.68;99616.59;5043015;28;20045;-82
2022/05/31 09:09:26;;;;;;;13.85;7.13;;;;;;;13.42;68.37;99615.63;5035961;28;20041;-84
2022/05/31 09:12:17;;;;;;;13.88;6.07;;;;;;;13.55;69.05;99610.63;5025513;28;20076;-84
2022/05/31 09:14:53;;;;;;;11.50;6.40;;;;;;;13.60;68.94;99605.09;5044586;28;20078;-80
2022/05/31 09:17:32;;;;;;;12.25;6.40;;;;;;;13.55;69.26;99621.56;5044408;28;20479;-81
2022/05/31 09:20:10;;;;;;;11.07;6.68;;;;;;;13.45;69.19;99616.16;5044967;28;20056;-80
2022/05/31 09:22:43;;;;;;;16.42;8.32;;;;;;;13.69;68.29;99601.75;5044668;28;20119;-81
2022/05/31 09:25:09;;;;;;;12.52;5.93;;;;;;;13.91;68.00;99594.94;5044903;28;20111;-81
2022/05/31 09:27:41;;;;;;;12.10;7.18;;;;;;;13.84;68.34;99596.09;5045260;28;20128;-82
2022/05/31 09:30:20;;;;;;;20.00;7.97;;;;;;;13.71;69.26;99596.78;5045394;28;20029;-80
2022/05/31 09:33:04;;;;;;;17.70;6.93;;;;;;;13.97;68.36;99600.03;5043909;28;20033;-83
2022/05/31 09:35:39;;;;;;;15.43;7.28;;;;;;;14.23;67.33;99607.16;5045277;28;20529;-80
2022/05/31 09:38:24;;;;;;;10.30;6.32;;;;;;;14.37;66.71;99612.72;5044344;28;20040;-81
2022/05/31 09:40:52;;;;;;;12.80;6.97;;;;;;;14.54;65.88;99606.72;5044005;28;20732;-81
2022/05/31 09:43:27;;;;;;;12.63;6.35;;;;;;;14.57;66.03;99605.34;5043392;28;20069;-81
2022/05/31 09:46:28;;;;;;;19.52;8.00;;;;;;;14.66;65.46;99602.75;5045816;28;20041;-82
2022/05/31 09:48:56;;;;;;;17.58;6.68;;;;;;;14.71;65.75;99605.41;5036867;28;20263;-83
2022/05/31 09:51:38;;;;;;;11.15;6.20;;;;;;;14.74;64.73;99588.38;5065527;28;20047;-85
2022/05/31 09:59:31;;;;;;;;;;;;;;;14.82;65.62;99587.69;5044612;28;20780;-84
2022/05/31 10:02:14;;;;;;;21.85;9.10;;;;;;;14.66;66.15;99583.56;5043900;28;19916;-84
2022/05/31 10:04:41;;;;;;;22.27;9.23;;;;;;;14.82;66.11;99589.63;5043509;28;20025;-81
2022/05/31 10:10:16;;;;;;;11.07;5.65;;;;;;;15.18;64.55;99571.78;5039643;28;20060;-83
2022/05/31 10:12:59;;;;;;;11.75;6.85;;;;;;;15.30;65.91;99574.06;5040894;28;20055;-81
2022/05/31 10:15:49;;;;;;;12.63;7.27;;;;;;;15.03;63.62;99570.91;5030399;28;20073;-83
2022/05/31 10:18:31;;;;;;;8.38;5.07;;;;;;;14.81;66.94;99568.78;5044316;28;20277;-84
2022/05/31 10:21:04;;;;;;;10.15;4.97;;;;;;;14.92;65.39;99572.22;5041684;28;20523;-83
2022/05/31 10:23:35;;;;;;;13.02;5.70;;;;;;;14.88;65.33;99587.66;5040809;28;20465;-83
2022/05/31 10:26:01;;;;;;;11.75;5.72;;;;;;;14.95;65.77;99582.56;5043643;28;20567;-84
2022/05/31 10:28:52;;;;;;;9.90;4.72;;;;;;;14.56;65.42;99585.31;5037274;28;20032;-80
2022/05/31 10:31:33;;;;;;;9.65;3.92;;;;;;;14.59;64.74;99582.00;5041661;28;20064;-84
2022/05/31 10:34:21;;;;;;;10.25;5.53;;;;;;;14.54;65.65;99584.78;5044145;28;20514;-82
2022/05/31 10:36:53;;;;;;;12.85;6.88;;;;;;;14.82;64.02;99573.97;5040996;28;20045;-82
2022/05/31 10:39:23;;;;;;;11.63;5.28;;;;;;;14.51;64.88;99577.16;5045625;28;20044;-83
2022/05/31 10:41:52;;;;;;;11.05;5.45;;;;;;;14.90;63.93;99578.00;5045432;28;20306;-83
2022/05/31 10:44:38;;;;;;;9.23;5.15;;;;;;;15.21;64.26;99573.13;5046692;28;20127;-84
2022/05/31 10:49:53;;;;;;;10.93;4.72;;;;;;;15.60;62.43;99560.09;5043477;28;20052;-87
2022/05/31 10:52:34;;;;;;;11.95;5.28;;;;;;;15.54;62.78;99559.34;5040054;28;20033;-83
2022/05/31 10:55:02;;;;;;;10.45;4.95;;;;;;;15.81;61.86;99562.41;5063407;28;20036;-82
2022/05/31 10:57:42;;;;;;;9.82;3.97;;;;;;;15.92;60.74;99569.34;5063934;28;20034;-83
2022/05/31 11:00:19;;;;;;;8.65;4.10;;;;;;;16.07;59.56;99554.50;5046203;28;20064;-82
2022/05/31 11:03:00;;;;;;;9.38;4.15;;;;;;;15.97;60.31;99561.00;5040702;28;20043;-84
2022/05/31 11:05:39;;;;;;;8.02;3.95;;;;;;;16.02;59.89;99557.38;5044857;28;20110;-82
2022/05/31 11:11:30;;;;;;;;;;;;;;;15.99;61.83;99553.25;5023526;28;20072;-83
2022/05/31 11:14:22;;;;;;;9.80;4.95;;;;;;;16.25;59.49;99559.38;5036233;28;20387;-83
2022/05/31 11:17:00;;;;;;;12.52;5.18;;;;;;;16.56;59.07;99559.50;5042233;28;20086;-83
2022/05/31 11:20:04;;;;;;;17.02;5.35;;;;;;;16.96;58.99;99557.22;5033371;28;20045;-82
2022/05/31 11:22:33;;;;;;;;;;;;;;;16.62;58.17;99554.69;5024889;28;20393;-82
2022/05/31 11:25:10;;;;;;;10.48;4.47;;;;;;;16.69;58.63;99557.00;5041704;28;19916;-82
2022/05/31 11:27:51;;;;;;;8.73;4.20;;;;;;;16.57;58.49;99552.88;5041668;28;20094;-80
2022/05/31 11:30:23;;;;;;;14.07;4.97;;;;;;;16.85;58.10;99543.69;5029184;28;20065;-82
2022/05/31 11:32:57;;;;;;;12.32;4.78;;;;;;;16.83;57.20;99547.88;5027743;28;20500;-82
2022/05/31 11:35:52;;;;;;;7.68;4.13;;;;;;;17.55;56.29;99541.69;5041694;28;20037;-81
2022/05/31 11:38:25;;;;;;;14.60;4.25;;;;;;;17.38;55.58;99541.28;5041588;28;20035;-82
2022/05/31 11:41:00;;;;;;;;;;;;;;;17.19;55.61;99546.22;5034161;28;20526;-82
2022/05/31 11:43:50;;;;;;;7.07;4.47;;;;;;;17.30;55.13;99531.03;5045724;28;19999;-82
2022/05/31 11:46:24;;;;;;;6.75;3.60;;;;;;;17.13;55.54;99538.06;5041133;28;20041;-81
2022/05/31 11:49:02;;;;;;;7.18;3.53;;;;;;;17.07;55.53;99531.03;5036439;28;20047;-81
2022/05/31 11:51:55;;;;;;;5.70;3.58;;;;;;;17.54;53.36;99531.78;5040040;28;20094;-82
2022/05/31 11:54:39;;;;;;;8.85;4.07;;;;;;;17.76;52.02;99525.38;5040645;28;20762;-81
2022/05/31 11:57:39;;;;;;;7.60;4.05;;;;;;;17.39;53.21;99533.81;5040057;28;20037;-81
2022/05/31 12:00:11;;;;;;;9.63;4.68;;;;;;;17.02;53.86;99540.22;5040562;28;20049;-81
2022/05/31 12:02:49;;;;;;;6.25;3.55;;;;;;;17.31;52.82;99532.66;5034464;28;20040;-82
2022/05/31 12:05:23;;;;;;;6.82;3.15;;;;;;;17.58;52.90;99528.09;5025598;28;20857;-82
2022/05/31 12:08:08;;;;;;;9.15;3.38;;;;;;;17.86;52.24;99518.75;5039439;28;20037;-80
2022/05/31 12:10:41;;;;;;;5.57;3.53;;;;;;;18.24;50.75;99531.22;5041335;28;20520;-83
2022/05/31 12:16:13;;;;;;;6.30;2.90;;;;;;;18.58;49.72;99517.75;5027985;28;20489;-83
2022/05/31 12:19:02;;;;;;;6.50;3.35;;;;;;;18.73;48.66;99519.19;5039297;28;20370;-82
2022/05/31 12:22:06;;;;;;;6.57;3.65;;;;;;;18.49;48.76;99511.44;5020990;28;20059;-82
2022/05/31 12:24:41;;;;;;;6.57;2.88;;;;;;;18.29;49.23;99514.50;5038655;28;20036;-82
2022/05/31 12:27:37;;;;;;;9.40;3.17;;;;;;;18.53;47.80;99507.69;5035821;28;20480;-82
2022/05/31 12:30:07;;;;;;;6.85;2.90;;;;;;;18.53;47.77;99510.44;5030917;28;20083;-83
2022/05/31 12:32:35;;;;;;;5.40;3.22;;;;;;;18.34;48.20;99498.91;5038073;28;20032;-81